createdAt,value
2022-10-08T00:01:06.615Z,99757.41
2022-10-08T00:03:36.284Z,99751.84
2022-10-08T00:06:06.093Z,99756.50
2022-10-08T00:08:38.200Z,99753.38
2022-10-08T00:11:06.618Z,99759.50
2022-10-08T00:13:41.715Z,99755.72
2022-10-08T00:16:12.591Z,99754.09
2022-10-08T00:18:41.147Z,99760.09
2022-10-08T00:21:16.697Z,99752.03
2022-10-08T00:23:46.701Z,99760.25
2022-10-08T00:26:15.692Z,99769.53
2022-10-08T00:28:45.079Z,99772.00
2022-10-08T00:31:16.557Z,99773.38
2022-10-08T00:33:43.585Z,99775.88
2022-10-08T00:36:12.573Z,99782.97
2022-10-08T00:38:39.826Z,99782.72
2022-10-08T00:41:16.354Z,99779.50
2022-10-08T00:43:44.550Z,99772.25
2022-10-08T00:46:17.159Z,99775.28
2022-10-08T00:48:44.429Z,99774.25
2022-10-08T00:51:11.545Z,99765.91
2022-10-08T00:53:38.194Z,99762.47
2022-10-08T00:56:04.901Z,99764.66
2022-10-08T00:58:33.165Z,99769.00
2022-10-08T01:00:59.808Z,99773.38
2022-10-08T01:03:26.441Z,99761.53
2022-10-08T01:05:58.713Z,99756.41
2022-10-08T01:08:32.066Z,99754.28
2022-10-08T01:11:20.335Z,99760.00
2022-10-08T01:14:11.006Z,99754.06
2022-10-08T01:16:55.222Z,99767.06
2022-10-08T01:19:50.405Z,99760.88
2022-10-08T01:22:17.561Z,99765.44
2022-10-08T01:25:09.114Z,99771.16
2022-10-08T01:27:46.089Z,99762.28
2022-10-08T01:30:16.203Z,99769.88
2022-10-08T01:32:52.359Z,99768.03
2022-10-08T01:35:26.220Z,99753.19
2022-10-08T01:37:56.204Z,99763.50
2022-10-08T01:40:29.078Z,99763.06
2022-10-08T01:42:56.342Z,99758.78
2022-10-08T01:45:27.720Z,99750.72
2022-10-08T01:47:56.118Z,99749.16
2022-10-08T01:50:33.038Z,99746.22
2022-10-08T01:53:07.289Z,99749.19
2022-10-08T01:55:40.054Z,99740.84
2022-10-08T01:58:13.857Z,99752.00
2022-10-08T02:00:42.184Z,99743.63
2022-10-08T02:03:13.010Z,99743.91
2022-10-08T02:05:44.128Z,99749.34
2022-10-08T02:08:10.840Z,99755.31
2022-10-08T02:10:37.967Z,99749.41
2022-10-08T02:13:04.755Z,99755.06
2022-10-08T02:15:37.114Z,99754.84
2022-10-08T02:18:06.851Z,99751.06
2022-10-08T02:20:45.469Z,99742.19
2022-10-08T02:23:25.484Z,99751.09
2022-10-08T02:26:01.585Z,99753.28
2022-10-08T02:28:46.384Z,99759.25
2022-10-08T02:31:31.064Z,99761.41
2022-10-08T02:34:12.578Z,99755.75
2022-10-08T02:36:43.665Z,99752.53
2022-10-08T02:39:12.933Z,99756.31
2022-10-08T02:41:43.116Z,99754.78
2022-10-08T02:44:15.802Z,99759.88
2022-10-08T02:46:46.843Z,99750.75
2022-10-08T02:49:19.334Z,99749.69
2022-10-08T02:51:49.756Z,99759.44
2022-10-08T02:54:20.193Z,99760.50
2022-10-08T02:57:04.747Z,99765.38
2022-10-08T02:59:35.518Z,99750.81
2022-10-08T03:02:04.434Z,99768.38
2022-10-08T03:04:39.360Z,99760.00
2022-10-08T03:07:06.985Z,99765.41
2022-10-08T03:09:39.038Z,99772.69
2022-10-08T03:12:06.200Z,99776.78
2022-10-08T03:14:37.696Z,99774.31
2022-10-08T03:17:05.942Z,99780.53
2022-10-08T03:19:34.454Z,99778.91
2022-10-08T03:22:02.278Z,99777.31
2022-10-08T03:24:28.887Z,99781.88
2022-10-08T03:26:55.759Z,99781.09
2022-10-08T03:29:22.342Z,99783.25
2022-10-08T03:31:49.259Z,99793.22
2022-10-08T03:34:15.846Z,99792.44
2022-10-08T03:36:42.577Z,99795.13
2022-10-08T03:39:11.010Z,99790.81
2022-10-08T03:41:37.600Z,99790.81
2022-10-08T03:44:06.987Z,99796.19
2022-10-08T03:46:33.674Z,99800.75
2022-10-08T03:49:00.323Z,99811.81
2022-10-08T03:51:26.984Z,99804.78
2022-10-08T03:53:53.493Z,99809.66
2022-10-08T03:56:24.202Z,99811.81
2022-10-08T03:59:00.754Z,99812.09
2022-10-08T04:01:28.674Z,99810.47
2022-10-08T04:03:55.313Z,99811.31
2022-10-08T04:06:22.275Z,99806.19
2022-10-08T04:08:48.827Z,99811.59
2022-10-08T04:11:17.261Z,99816.97
2022-10-08T04:13:44.418Z,99810.78
2022-10-08T04:16:16.258Z,99811.88
2022-10-08T04:18:43.691Z,99822.13
2022-10-08T04:21:15.046Z,99823.47
2022-10-08T04:23:42.614Z,99822.41
2022-10-08T04:26:11.194Z,99821.03
2022-10-08T04:28:39.317Z,99820.50
2022-10-08T04:31:12.284Z,99814.84
2022-10-08T04:33:39.146Z,99812.44
2022-10-08T04:36:11.081Z,99808.41
2022-10-08T04:38:38.119Z,99813.00
2022-10-08T04:41:07.427Z,99813.00
2022-10-08T04:43:35.605Z,99818.38
2022-10-08T04:46:03.165Z,99808.94
2022-10-08T04:48:29.743Z,99807.34
2022-10-08T04:50:58.053Z,99809.19
2022-10-08T04:53:25.803Z,99815.66
2022-10-08T04:55:53.702Z,99816.75
2022-10-08T04:58:22.076Z,99823.50
2022-10-08T05:00:48.583Z,99818.09
2022-10-08T05:03:15.114Z,99824.25
2022-10-08T05:05:43.345Z,99816.00
2022-10-08T05:08:09.907Z,99819.78
2022-10-08T05:10:36.753Z,99813.00
2022-10-08T05:13:04.026Z,99818.66
2022-10-08T05:15:31.172Z,99820.81
2022-10-08T05:17:57.762Z,99820.94
2022-10-08T05:20:24.381Z,99820.53
2022-10-08T05:22:50.926Z,99828.59
2022-10-08T05:25:17.475Z,99825.69
2022-10-08T05:27:44.054Z,99824.22
2022-10-08T05:30:11.242Z,99830.06
2022-10-08T05:32:37.779Z,99824.59
2022-10-08T05:35:04.560Z,99836.81
2022-10-08T05:37:31.227Z,99830.69
2022-10-08T05:39:57.864Z,99827.13
2022-10-08T05:42:24.398Z,99832.03
2022-10-08T05:44:50.914Z,99835.81
2022-10-08T05:47:17.455Z,99840.13
2022-10-08T05:49:44.015Z,99848.03
2022-10-08T05:52:10.782Z,99843.53
2022-10-08T05:54:37.416Z,99837.75
2022-10-08T05:57:03.991Z,99846.75
2022-10-08T05:59:30.560Z,99856.56
2022-10-08T06:01:57.086Z,99852.31
2022-10-08T06:04:23.919Z,99866.38
2022-10-08T06:06:50.600Z,99870.47
2022-10-08T06:09:20.116Z,99873.22
2022-10-08T06:11:47.818Z,99868.91
2022-10-08T06:14:17.152Z,99876.81
2022-10-08T06:16:43.754Z,99874.88
2022-10-08T06:19:10.967Z,99880.63
2022-10-08T06:21:37.623Z,99880.69
2022-10-08T06:24:06.983Z,99889.53
2022-10-08T06:26:37.481Z,99884.41
2022-10-08T06:29:10.391Z,99894.09
2022-10-08T06:31:37.287Z,99877.97
2022-10-08T06:34:05.047Z,99882.06
2022-10-08T06:36:32.815Z,99879.16
2022-10-08T06:39:01.541Z,99884.34
2022-10-08T06:41:35.057Z,99897.06
2022-10-08T06:44:07.192Z,99897.09
2022-10-08T06:46:34.795Z,99897.94
2022-10-08T06:49:01.893Z,99906.34
2022-10-08T06:51:29.422Z,99904.22
2022-10-08T06:54:01.454Z,99911.28
2022-10-08T06:56:29.943Z,99909.66
2022-10-08T06:58:56.453Z,99909.66
2022-10-08T07:01:27.951Z,99917.22
2022-10-08T07:04:00.638Z,99919.94
2022-10-08T07:06:27.378Z,99922.13
2022-10-08T07:09:03.670Z,99930.25
2022-10-08T07:11:32.146Z,99931.28
2022-10-08T07:13:59.326Z,99949.38
2022-10-08T07:16:27.660Z,99941.25
2022-10-08T07:18:56.435Z,99941.75
2022-10-08T07:21:23.283Z,99950.06
2022-10-08T07:23:50.367Z,99952.22
2022-10-08T07:26:20.124Z,99954.84
2022-10-08T07:29:02.104Z,99946.94
2022-10-08T07:31:34.835Z,99954.41
2022-10-08T07:34:03.624Z,99965.97
2022-10-08T07:36:31.137Z,99961.56
2022-10-08T07:39:03.703Z,99964.75
2022-10-08T07:41:31.754Z,99968.38
2022-10-08T07:44:00.078Z,99973.44
2022-10-08T07:46:28.739Z,99973.56
2022-10-08T07:48:56.948Z,99981.09
2022-10-08T07:51:23.508Z,99987.47
2022-10-08T07:53:50.184Z,99980.91
2022-10-08T07:56:18.937Z,99980.50
2022-10-08T07:58:45.750Z,99976.06
2022-10-08T08:01:14.839Z,99968.09
2022-10-08T08:03:42.282Z,99971.78
2022-10-08T08:06:16.557Z,99978.47
2022-10-08T08:08:45.893Z,99984.91
2022-10-08T08:11:15.254Z,99986.09
2022-10-08T08:13:42.752Z,99983.75
2022-10-08T08:16:15.020Z,99981.41
2022-10-08T08:18:44.041Z,99984.19
2022-10-08T08:21:16.370Z,99991.56
2022-10-08T08:23:48.223Z,99985.72
2022-10-08T08:26:29.454Z,99986.59
2022-10-08T08:28:59.844Z,99994.47
2022-10-08T08:31:29.370Z,99989.97
2022-10-08T08:33:59.158Z,99987.19
2022-10-08T08:36:31.807Z,99993.06
2022-10-08T08:38:59.182Z,100010.88
2022-10-08T08:41:28.758Z,100010.78
2022-10-08T08:44:08.216Z,100005.84
2022-10-08T08:46:40.978Z,100009.56
2022-10-08T08:49:18.616Z,100010.19
2022-10-08T08:51:45.231Z,100007.19
2022-10-08T08:54:11.775Z,100014.94
2022-10-08T08:56:38.988Z,100014.25
2022-10-08T08:59:07.661Z,100015.06
2022-10-08T09:01:42.380Z,100020.31
2022-10-08T09:04:18.568Z,100019.69
2022-10-08T09:06:46.396Z,100025.84
2022-10-08T09:09:30.002Z,100025.56
2022-10-08T09:11:57.645Z,100031.50
2022-10-08T09:14:40.998Z,100039.81
2022-10-08T09:17:19.575Z,100058.47
2022-10-08T09:19:48.480Z,100066.00
2022-10-08T09:22:20.152Z,100056.72
2022-10-08T09:24:49.779Z,100071.19
2022-10-08T09:27:16.861Z,100067.13
2022-10-08T09:29:43.524Z,100078.06
2022-10-08T09:32:19.344Z,100073.81
2022-10-08T09:34:48.306Z,100065.59
2022-10-08T09:37:25.985Z,100064.47
2022-10-08T09:40:08.415Z,100079.97
2022-10-08T09:42:35.005Z,100078.66
2022-10-08T09:45:03.984Z,100096.03
2022-10-08T09:47:33.667Z,100092.81
2022-10-08T09:50:29.484Z,100090.94
2022-10-08T09:52:56.293Z,100093.94
2022-10-08T09:55:31.689Z,100096.88
2022-10-08T09:58:00.541Z,100094.84
2022-10-08T10:00:35.582Z,100098.06
2022-10-08T10:03:05.610Z,100099.72
2022-10-08T10:05:36.608Z,100112.19
2022-10-08T10:08:03.710Z,100110.88
2022-10-08T10:10:30.475Z,100108.94
2022-10-08T10:13:05.067Z,100110.59
2022-10-08T10:15:39.630Z,100122.28
2022-10-08T10:18:15.701Z,100106.84
2022-10-08T10:20:47.984Z,100107.09
2022-10-08T10:23:24.529Z,100103.66
2022-10-08T10:26:06.706Z,100100.22
2022-10-08T10:28:54.921Z,100104.88
2022-10-08T10:31:24.713Z,100109.13
2022-10-08T10:34:00.253Z,100113.78
2022-10-08T10:36:32.224Z,100113.06
2022-10-08T10:39:21.943Z,100111.16
2022-10-08T10:41:58.432Z,100120.09
2022-10-08T10:44:51.234Z,100119.47
2022-10-08T10:47:21.594Z,100129.25
2022-10-08T10:49:48.706Z,100120.50
2022-10-08T10:52:36.317Z,100127.56
2022-10-08T10:55:30.828Z,100117.53
2022-10-08T10:58:00.417Z,100116.53
2022-10-08T11:00:32.606Z,100118.22
2022-10-08T11:03:09.536Z,100121.91
2022-10-08T11:05:40.027Z,100122.28
2022-10-08T11:08:44.222Z,100113.28
2022-10-08T11:11:23.193Z,100111.78
2022-10-08T11:14:07.923Z,100118.41
2022-10-08T11:17:00.981Z,100111.56
2022-10-08T11:20:10.249Z,100114.09
2022-10-08T11:22:49.056Z,100119.47
2022-10-08T11:25:49.475Z,100120.06
2022-10-08T11:28:46.280Z,100108.09
2022-10-08T11:31:19.065Z,100119.66
2022-10-08T11:33:46.544Z,100113.78
2022-10-08T11:36:41.149Z,100117.94
2022-10-08T11:39:21.690Z,100105.25
2022-10-08T11:42:13.426Z,100107.09
2022-10-08T11:44:40.076Z,100100.84
2022-10-08T11:47:35.522Z,100109.94
2022-10-08T11:50:05.586Z,100108.91
2022-10-08T11:52:33.934Z,100102.25
2022-10-08T11:55:27.025Z,100111.16
2022-10-08T11:58:08.014Z,100102.56
2022-10-08T12:00:41.838Z,100096.00
2022-10-08T12:03:41.874Z,100089.41
2022-10-08T12:06:14.440Z,100085.09
2022-10-08T12:08:52.881Z,100082.09
2022-10-08T12:11:40.687Z,100086.59
2022-10-08T12:14:16.954Z,100075.84
2022-10-08T12:17:07.518Z,100088.31
2022-10-08T12:19:34.421Z,100085.94
2022-10-08T12:22:02.125Z,100079.50
2022-10-08T12:24:37.707Z,100091.25
2022-10-08T12:27:16.505Z,100092.13
2022-10-08T12:30:05.102Z,100077.13
2022-10-08T12:32:43.732Z,100086.41
2022-10-08T12:35:22.933Z,100085.94
2022-10-08T12:37:55.534Z,100084.00
2022-10-08T12:40:48.486Z,100076.78
2022-10-08T12:43:34.370Z,100075.16
2022-10-08T12:46:06.933Z,100074.66
2022-10-08T12:48:34.096Z,100069.81
2022-10-08T12:51:16.124Z,100069.84
2022-10-08T12:53:44.749Z,100069.41
2022-10-08T12:56:17.321Z,100078.44
2022-10-08T12:58:46.375Z,100065.19
2022-10-08T13:01:16.761Z,100065.53
2022-10-08T13:03:43.532Z,100070.34
2022-10-08T13:06:28.395Z,100067.31
2022-10-08T13:08:58.279Z,100066.84
2022-10-08T13:11:26.303Z,100061.22
2022-10-08T13:13:52.949Z,100069.59
2022-10-08T13:16:25.058Z,100063.97
2022-10-08T13:18:58.489Z,100067.81
2022-10-08T13:21:25.266Z,100063.63
2022-10-08T13:23:52.221Z,100056.38
2022-10-08T13:26:37.569Z,100060.81
2022-10-08T13:29:22.667Z,100056.53
2022-10-08T13:31:58.518Z,100057.41
2022-10-08T13:34:41.987Z,100062.41
2022-10-08T13:37:39.154Z,100050.00
2022-10-08T13:40:19.559Z,100060.25
2022-10-08T13:42:58.852Z,100059.16
2022-10-08T13:45:36.799Z,100058.19
2022-10-08T13:48:03.958Z,100053.34
2022-10-08T13:50:30.549Z,100052.47
2022-10-08T13:53:00.565Z,100051.44
2022-10-08T13:55:32.537Z,100047.44
2022-10-08T13:58:02.170Z,100045.34
2022-10-08T14:00:30.863Z,100050.31
2022-10-08T14:02:57.551Z,100041.94
2022-10-08T14:05:25.141Z,100040.28
2022-10-08T14:07:54.926Z,100043.59
2022-10-08T14:10:21.618Z,100039.72
2022-10-08T14:12:48.173Z,100038.13
2022-10-08T14:15:16.575Z,100042.41
2022-10-08T14:17:43.716Z,100036.25
2022-10-08T14:20:10.850Z,100040.09
2022-10-08T14:22:40.304Z,100037.41
2022-10-08T14:25:17.965Z,100037.94
2022-10-08T14:27:45.037Z,100040.34
2022-10-08T14:30:12.709Z,100030.78
2022-10-08T14:32:39.940Z,100029.63
2022-10-08T14:35:07.116Z,100028.47
2022-10-08T14:37:37.505Z,100029.25
2022-10-08T14:40:06.168Z,100030.94
2022-10-08T14:42:32.820Z,100023.38
2022-10-08T14:44:59.666Z,100022.09
2022-10-08T14:47:26.226Z,100022.09
2022-10-08T14:49:52.830Z,100023.84
2022-10-08T14:52:20.621Z,100021.78
2022-10-08T14:54:47.240Z,100027.38
2022-10-08T14:57:13.844Z,100029.88
2022-10-08T14:59:41.235Z,100026.69
2022-10-08T15:02:10.772Z,100027.03
2022-10-08T15:04:37.663Z,100028.00
2022-10-08T15:07:04.898Z,100020.78
2022-10-08T15:09:31.570Z,100023.41
2022-10-08T15:11:58.257Z,100016.13
2022-10-08T15:14:24.963Z,100019.56
2022-10-08T15:16:51.573Z,100022.34
2022-10-08T15:19:22.719Z,100018.69
2022-10-08T15:21:50.496Z,100010.91
2022-10-08T15:24:17.140Z,100021.31
2022-10-08T15:26:43.732Z,100011.16
2022-10-08T15:29:10.341Z,100008.31
2022-10-08T15:31:36.936Z,100004.47
2022-10-08T15:34:03.530Z,100007.66
2022-10-08T15:36:36.172Z,100007.41
2022-10-08T15:39:11.931Z,100013.19
2022-10-08T15:41:40.665Z,100018.66
2022-10-08T15:44:10.098Z,100015.00
2022-10-08T15:46:37.463Z,100021.88
2022-10-08T15:49:04.356Z,100018.91
2022-10-08T15:51:31.510Z,100024.00
2022-10-08T15:53:59.419Z,100033.81
2022-10-08T15:56:26.752Z,100033.84
2022-10-08T15:58:53.714Z,100044.69
2022-10-08T16:01:23.232Z,100047.88
2022-10-08T16:03:52.455Z,100044.44
2022-10-08T16:06:22.377Z,100059.72
2022-10-08T16:08:49.142Z,100061.59
2022-10-08T16:11:20.057Z,100065.03
2022-10-08T16:13:52.303Z,100069.28
2022-10-08T16:16:20.292Z,100065.75
2022-10-08T16:18:51.065Z,100068.63
2022-10-08T16:21:17.954Z,100068.28
2022-10-08T16:23:44.521Z,100068.88
2022-10-08T16:26:13.468Z,100078.09
2022-10-08T16:28:41.001Z,100074.19
2022-10-08T16:31:08.908Z,100075.72
2022-10-08T16:33:35.628Z,100081.28
2022-10-08T16:36:05.587Z,100080.25
2022-10-08T16:38:37.950Z,100090.88
2022-10-08T16:41:12.537Z,100095.00
2022-10-08T16:43:39.396Z,100098.44
2022-10-08T16:46:23.446Z,100102.50
2022-10-08T16:48:55.937Z,100104.19
2022-10-08T16:51:23.819Z,100110.25
2022-10-08T16:53:52.956Z,100110.63
2022-10-08T16:56:20.572Z,100119.59
2022-10-08T16:58:52.260Z,100122.66
2022-10-08T17:01:19.982Z,100120.44
2022-10-08T17:03:48.681Z,100130.72
2022-10-08T17:06:16.419Z,100134.59
2022-10-08T17:08:43.161Z,100137.91
2022-10-08T17:11:12.487Z,100140.94
2022-10-08T17:13:46.881Z,100130.34
2022-10-08T17:16:14.756Z,100132.88
2022-10-08T17:18:44.210Z,100149.00
2022-10-08T17:21:12.023Z,100145.25
2022-10-08T17:23:38.715Z,100149.16
2022-10-08T17:26:14.405Z,100158.00
2022-10-08T17:28:43.656Z,100151.63
2022-10-08T17:31:16.129Z,100159.38
2022-10-08T17:33:43.130Z,100163.78
2022-10-08T17:36:20.349Z,100168.81
2022-10-08T17:38:49.191Z,100160.72
2022-10-08T17:41:21.338Z,100175.22
2022-10-08T17:43:48.715Z,100181.00
2022-10-08T17:46:18.804Z,100180.34
2022-10-08T17:48:45.735Z,100174.28
2022-10-08T17:51:15.216Z,100180.66
2022-10-08T17:53:43.125Z,100190.81
2022-10-08T17:56:12.483Z,100196.41
2022-10-08T17:58:39.768Z,100196.50
2022-10-08T18:01:16.092Z,100196.13
2022-10-08T18:03:44.375Z,100195.16
2022-10-08T18:06:12.190Z,100197.41
2022-10-08T18:08:38.945Z,100213.50
2022-10-08T18:11:08.785Z,100215.59
2022-10-08T18:13:36.312Z,100209.78
2022-10-08T18:16:07.739Z,100219.13
2022-10-08T18:18:34.647Z,100224.03
2022-10-08T18:21:02.171Z,100220.53
2022-10-08T18:23:30.848Z,100227.91
2022-10-08T18:26:18.950Z,100223.88
2022-10-08T18:28:48.846Z,100226.06
2022-10-08T18:31:16.179Z,100241.53
2022-10-08T18:33:45.074Z,100243.19
2022-10-08T18:36:18.096Z,100241.09
2022-10-08T18:38:47.961Z,100244.94
2022-10-08T18:41:15.975Z,100246.91
2022-10-08T18:43:43.832Z,100255.34
2022-10-08T18:46:11.118Z,100258.06
2022-10-08T18:48:38.231Z,100257.00
2022-10-08T18:51:16.870Z,100255.91
2022-10-08T18:53:44.538Z,100249.63
2022-10-08T18:56:17.183Z,100255.28
2022-10-08T18:58:44.486Z,100253.94
2022-10-08T19:01:23.290Z,100253.38
2022-10-08T19:03:55.060Z,100258.22
2022-10-08T19:06:24.857Z,100255.22
2022-10-08T19:08:51.958Z,100261.19
2022-10-08T19:11:21.178Z,100257.66
2022-10-08T19:13:48.439Z,100265.50
2022-10-08T19:16:15.891Z,100264.69
2022-10-08T19:18:44.314Z,100265.25
2022-10-08T19:21:13.120Z,100265.28
2022-10-08T19:23:40.225Z,100266.69
2022-10-08T19:26:07.227Z,100267.53
2022-10-08T19:28:37.130Z,100274.88
2022-10-08T19:31:17.156Z,100272.81
2022-10-08T19:33:48.734Z,100265.00
2022-10-08T19:36:15.982Z,100278.28
2022-10-08T19:38:43.065Z,100275.59
2022-10-08T19:41:10.856Z,100278.03
2022-10-08T19:43:38.047Z,100276.69
2022-10-08T19:46:05.847Z,100274.78
2022-10-08T19:48:33.028Z,100280.44
2022-10-08T19:51:08.164Z,100276.94
2022-10-08T19:53:35.475Z,100278.84
2022-10-08T19:56:09.960Z,100276.41
2022-10-08T19:58:38.045Z,100286.13
2022-10-08T20:01:08.077Z,100289.38
2022-10-08T20:03:35.130Z,100284.81
2022-10-08T20:06:03.541Z,100292.94
2022-10-08T20:08:30.247Z,100291.34
2022-10-08T20:10:59.345Z,100298.13
2022-10-08T20:13:25.926Z,100300.56
2022-10-08T20:15:52.572Z,100304.38
2022-10-08T20:18:19.142Z,100299.25
2022-10-08T20:20:45.764Z,100294.09
2022-10-08T20:23:12.572Z,100300.59
2022-10-08T20:25:39.105Z,100305.72
2022-10-08T20:28:05.721Z,100302.78
2022-10-08T20:30:32.337Z,100304.41
2022-10-08T20:32:58.897Z,100309.28
2022-10-08T20:35:25.561Z,100313.59
2022-10-08T20:37:52.124Z,100309.25
2022-10-08T20:40:18.657Z,100312.22
2022-10-08T20:42:45.523Z,100312.47
2022-10-08T20:45:12.310Z,100316.25
2022-10-08T20:47:38.882Z,100313.56
2022-10-08T20:50:06.028Z,100319.00
2022-10-08T20:52:32.563Z,100326.00
2022-10-08T20:54:59.082Z,100326.56
2022-10-08T20:57:25.617Z,100328.19
2022-10-08T20:59:52.185Z,100322.25
2022-10-08T21:02:19.840Z,100322.25
2022-10-08T21:04:46.597Z,100328.19
2022-10-08T21:07:13.117Z,100331.97
2022-10-08T21:09:39.786Z,100329.53
2022-10-08T21:12:06.327Z,100329.25
2022-10-08T21:14:32.874Z,100328.69
2022-10-08T21:16:59.437Z,100329.00
2022-10-08T21:19:26.287Z,100335.47
2022-10-08T21:21:53.268Z,100330.31
2022-10-08T21:24:20.274Z,100327.09
2022-10-08T21:26:46.866Z,100324.94
2022-10-08T21:29:14.697Z,100328.16
2022-10-08T21:31:42.344Z,100319.53
2022-10-08T21:34:11.548Z,100317.38
2022-10-08T21:36:39.820Z,100324.91
2022-10-08T21:39:08.254Z,100322.47
2022-10-08T21:41:36.973Z,100325.97
2022-10-08T21:44:06.741Z,100324.34
2022-10-08T21:46:36.462Z,100320.31
2022-10-08T21:49:05.991Z,100314.09
2022-10-08T21:51:34.070Z,100321.94
2022-10-08T21:54:02.188Z,100331.91
2022-10-08T21:56:32.883Z,100333.00
2022-10-08T21:59:01.554Z,100329.22
2022-10-08T22:01:48.911Z,100325.44
2022-10-08T22:04:18.528Z,100325.13
2022-10-08T22:06:47.592Z,100330.25
2022-10-08T22:09:18.170Z,100328.06
2022-10-08T22:11:45.895Z,100327.53
2022-10-08T22:14:12.620Z,100318.31
2022-10-08T22:16:39.217Z,100329.63
2022-10-08T22:19:06.060Z,100325.84
2022-10-08T22:21:33.616Z,100318.84
2022-10-08T22:24:00.319Z,100326.38
2022-10-08T22:26:29.719Z,100319.63
2022-10-08T22:28:56.792Z,100329.88
2022-10-08T22:31:23.872Z,100330.16
2022-10-08T22:33:50.882Z,100320.97
2022-10-08T22:36:29.200Z,100316.06
2022-10-08T22:38:56.852Z,100314.44
2022-10-08T22:41:29.096Z,100312.56
2022-10-08T22:43:56.502Z,100310.91
2022-10-08T22:46:28.926Z,100306.88
2022-10-08T22:49:00.958Z,100316.28
2022-10-08T22:51:28.181Z,100308.91
2022-10-08T22:53:55.082Z,100316.47
2022-10-08T22:56:24.293Z,100303.00
2022-10-08T22:58:51.616Z,100302.47
2022-10-08T23:01:20.653Z,100305.69
2022-10-08T23:03:48.336Z,100302.97
2022-10-08T23:06:16.315Z,100306.19
2022-10-08T23:08:44.069Z,100308.88
2022-10-08T23:11:11.037Z,100307.81
2022-10-08T23:13:38.017Z,100303.75
2022-10-08T23:16:06.469Z,100302.41
2022-10-08T23:18:35.019Z,100309.38
2022-10-08T23:21:04.123Z,100303.41
2022-10-08T23:23:31.865Z,100309.00
2022-10-08T23:26:03.515Z,100302.81
2022-10-08T23:28:31.839Z,100304.91
2022-10-08T23:31:08.774Z,100302.69
2022-10-08T23:33:38.194Z,100293.78
2022-10-08T23:36:09.695Z,100298.38
2022-10-08T23:38:36.916Z,100295.69
2022-10-08T23:41:05.580Z,100295.94
2022-10-08T23:43:51.509Z,100293.50
2022-10-08T23:46:23.277Z,100295.59
2022-10-08T23:48:50.824Z,100290.50
2022-10-08T23:51:18.838Z,100298.03
2022-10-08T23:53:46.542Z,100292.88
2022-10-08T23:56:13.856Z,100288.84
2022-10-08T23:58:40.795Z,100283.16
